Portada
METAR-TAF:

METAR-TAF

Aeroports :

Caracas, Veneçuela

Aeroport Internacional Maiquetía Simón Bolívar

latitud: 10-36N, longitud: 066-59W, altitud: 43 m

Observació

L'informe es va fer fa 33 minuts, a les 07:00 UTC
Vent calma
Temperatura 23°C
Humitat 83%
Pressió 1012 hPa
Visibilitat 10 km o més
Escasses núvols a una alçada de 1600 ft

METAR: SVMI 250700Z 00000KT 9999 FEW016 23/20 Q1012

Hora: 03:33 (07:33 UTC)

Pronòstic

L'informe es va fer fa 3 hores i 33 minuts, a les 04:00 UTC
Pronòstic vàlid del 25 a les 06 UTC al 26 a les 06 UTC
Vent 10 kt del Est
Visibilitat 10 km o més
Escasses núvols a una alçada de 1300 ft
Evolucionant progressivament
l' 25 a les 06 UTC al 25 a les 10 UTC
Vent 6 kt del Est

TAF: SVMI 250400Z 2506/2606 09010KT 9999 FEW013 TX33/18Z TN24/09Z BECMG 2506/2510 08006KT

Observacions i pronòstics meteorològics de més de 4000 aeroports (METAR i TAF).

Les estacions disponibles són els punts grocs i vermells al mapa.

Posi el ratolí al punt desitjat per veure el nom de l'estació.

Feu clic per veure les observacions i els pronòstics meteorològics.

Per canviar el mapa: feu clic els botons verds amb una creu de color negre per apropar; al botó verd amb un guió per allunyar la imatge; o en les fletxes verdes per a mapes adjacents.


METAR-TAF: